createdAt,value
2023-03-17T00:00:05.475Z,100772.13
2023-03-17T00:02:33.255Z,100780.69
2023-03-17T00:04:54.878Z,100771.66
2023-03-17T00:07:17.641Z,100788.94
2023-03-17T00:09:39.210Z,100790.06
2023-03-17T00:12:01.105Z,100800.72
2023-03-17T00:14:22.944Z,100801.06
2023-03-17T00:16:52.546Z,100789.72
2023-03-17T00:19:17.810Z,100806.22
2023-03-17T00:21:40.136Z,100802.66
2023-03-17T00:24:02.120Z,100808.66
2023-03-17T00:26:24.932Z,100798.47
2023-03-17T00:28:47.509Z,100799.25
2023-03-17T00:31:20.940Z,100791.69
2023-03-17T00:33:45.252Z,100780.06
2023-03-17T00:36:15.732Z,100782.47
2023-03-17T00:38:37.538Z,100773.41
2023-03-17T00:40:59.267Z,100776.63
2023-03-17T00:43:20.910Z,100773.22
2023-03-17T00:45:43.231Z,100767.59
2023-03-17T00:48:17.303Z,100765.47
2023-03-17T00:50:39.284Z,100759.66
2023-03-17T00:53:01.309Z,100758.38
2023-03-17T00:55:26.666Z,100751.44
2023-03-17T00:57:49.959Z,100758.06
2023-03-17T01:00:32.894Z,100759.97
2023-03-17T01:02:57.259Z,100750.44
2023-03-17T01:05:24.951Z,100754.31
2023-03-17T01:07:52.887Z,100754.94
2023-03-17T01:10:20.378Z,100747.03
2023-03-17T01:12:43.066Z,100736.34
2023-03-17T01:15:05.806Z,100734.75
2023-03-17T01:17:27.759Z,100745.22
2023-03-17T01:19:49.470Z,100739.25
2023-03-17T01:22:11.738Z,100731.81
2023-03-17T01:24:33.672Z,100740.06
2023-03-17T01:26:55.287Z,100749.75
2023-03-17T01:29:17.555Z,100747.34
2023-03-17T01:31:39.414Z,100753.13
2023-03-17T01:34:01.135Z,100737.81
2023-03-17T01:36:22.822Z,100737.00
2023-03-17T01:38:47.973Z,100736.16
2023-03-17T01:41:10.458Z,100729.88
2023-03-17T01:43:32.524Z,100732.94
2023-03-17T01:46:31.972Z,100734.06
2023-03-17T01:49:27.912Z,100733.59
2023-03-17T01:52:02.115Z,100722.09
2023-03-17T01:54:56.663Z,100728.75
2023-03-17T01:57:25.413Z,100723.06
2023-03-17T01:59:55.422Z,100716.78
2023-03-17T02:02:25.702Z,100717.56
2023-03-17T02:04:47.767Z,100714.38
2023-03-17T02:07:11.260Z,100716.28
2023-03-17T02:09:37.153Z,100711.94
2023-03-17T02:12:02.645Z,100713.06
2023-03-17T02:14:24.424Z,100708.69
2023-03-17T02:16:46.496Z,100712.59
2023-03-17T02:19:11.411Z,100709.34
2023-03-17T02:21:39.028Z,100702.25
2023-03-17T02:24:08.370Z,100702.25
2023-03-17T02:26:35.298Z,100700.94
2023-03-17T02:28:57.445Z,100705.31
2023-03-17T02:31:19.912Z,100701.75
2023-03-17T02:33:42.501Z,100699.63
2023-03-17T02:36:04.815Z,100692.53
2023-03-17T02:38:27.051Z,100697.72
2023-03-17T02:40:49.000Z,100689.50
2023-03-17T02:43:10.904Z,100689.16
2023-03-17T02:45:32.529Z,100697.56
2023-03-17T02:47:56.035Z,100690.94
2023-03-17T02:50:23.217Z,100689.84
2023-03-17T02:52:44.855Z,100685.63
2023-03-17T02:55:08.320Z,100678.34
2023-03-17T02:57:29.882Z,100682.09
2023-03-17T02:59:52.273Z,100673.84
2023-03-17T03:02:14.343Z,100677.88
2023-03-17T03:04:36.034Z,100692.41
2023-03-17T03:06:57.705Z,100685.31
2023-03-17T03:09:20.823Z,100670.81
2023-03-17T03:11:42.931Z,100668.38
2023-03-17T03:14:05.553Z,100673.84
2023-03-17T03:16:27.367Z,100678.53
2023-03-17T03:18:48.959Z,100678.53
2023-03-17T03:21:10.898Z,100674.66
2023-03-17T03:23:32.670Z,100682.41
2023-03-17T03:25:54.405Z,100671.41
2023-03-17T03:28:16.148Z,100674.16
2023-03-17T03:30:38.754Z,100670.81
2023-03-17T03:33:00.679Z,100663.69
2023-03-17T03:35:22.323Z,100666.91
2023-03-17T03:37:44.047Z,100671.25
2023-03-17T03:40:07.498Z,100664.97
2023-03-17T03:42:29.148Z,100679.50
2023-03-17T03:44:50.757Z,100679.84
2023-03-17T03:47:13.992Z,100674.84
2023-03-17T03:49:35.777Z,100674.84
2023-03-17T03:51:57.500Z,100684.19
2023-03-17T03:54:19.273Z,100696.31
2023-03-17T03:56:40.963Z,100691.94
2023-03-17T03:59:03.501Z,100677.75
2023-03-17T04:01:25.189Z,100695.31
2023-03-17T04:03:47.385Z,100708.72
2023-03-17T04:06:09.107Z,100707.44
2023-03-17T04:08:31.826Z,100697.91
2023-03-17T04:10:53.464Z,100703.22
2023-03-17T04:13:15.409Z,100702.25
2023-03-17T04:15:37.524Z,100703.66
2023-03-17T04:17:59.209Z,100705.94
2023-03-17T04:20:21.165Z,100711.25
2023-03-17T04:22:44.119Z,100712.19
2023-03-17T04:25:06.502Z,100708.81
2023-03-17T04:27:28.384Z,100701.84
2023-03-17T04:29:50.078Z,100706.38
2023-03-17T04:32:16.075Z,100694.41
2023-03-17T04:34:37.702Z,100693.41
2023-03-17T04:36:59.498Z,100685.19
2023-03-17T04:39:21.584Z,100700.84
2023-03-17T04:41:43.190Z,100703.91
2023-03-17T04:44:05.956Z,100703.91
2023-03-17T04:46:27.630Z,100706.16
2023-03-17T04:48:49.309Z,100705.66
2023-03-17T04:51:11.957Z,100703.72
2023-03-17T04:53:34.969Z,100709.84
2023-03-17T04:55:56.661Z,100709.03
2023-03-17T04:58:30.114Z,100706.75
2023-03-17T05:00:53.110Z,100711.16
2023-03-17T05:03:26.308Z,100720.00
2023-03-17T05:05:50.686Z,100709.03
2023-03-17T05:08:12.747Z,100703.88
2023-03-17T05:10:34.338Z,100702.25
2023-03-17T05:12:56.131Z,100704.66
2023-03-17T05:15:18.184Z,100703.22
2023-03-17T05:17:39.822Z,100697.13
2023-03-17T05:20:04.941Z,100703.41
2023-03-17T05:22:27.138Z,100700.66
2023-03-17T05:24:48.933Z,100694.84
2023-03-17T05:27:10.711Z,100691.00
2023-03-17T05:29:32.322Z,100686.31
2023-03-17T05:31:54.721Z,100678.91
2023-03-17T05:34:17.425Z,100677.44
2023-03-17T05:36:39.032Z,100686.31
2023-03-17T05:39:00.843Z,100684.38
2023-03-17T05:41:23.061Z,100686.31
2023-03-17T05:43:44.764Z,100695.03
2023-03-17T05:46:06.707Z,100693.09
2023-03-17T05:48:28.354Z,100703.75
2023-03-17T05:50:50.153Z,100696.00
2023-03-17T05:53:12.720Z,100701.50
2023-03-17T05:55:34.430Z,100697.44
2023-03-17T05:57:56.231Z,100699.38
2023-03-17T06:00:18.876Z,100694.25
2023-03-17T06:02:40.637Z,100696.66
2023-03-17T06:05:02.462Z,100694.72
2023-03-17T06:07:25.057Z,100688.41
2023-03-17T06:09:46.714Z,100690.06
2023-03-17T06:12:09.410Z,100690.53
2023-03-17T06:14:31.072Z,100683.63
2023-03-17T06:16:53.277Z,100691.84
2023-03-17T06:19:14.978Z,100695.38
2023-03-17T06:21:36.964Z,100705.56
2023-03-17T06:23:58.504Z,100700.38
2023-03-17T06:26:21.512Z,100701.50
2023-03-17T06:28:43.124Z,100710.06
2023-03-17T06:31:07.227Z,100701.81
2023-03-17T06:33:30.012Z,100691.16
2023-03-17T06:35:51.796Z,100693.59
2023-03-17T06:38:13.612Z,100690.53
2023-03-17T06:40:35.579Z,100692.31
2023-03-17T06:42:57.443Z,100705.56
2023-03-17T06:45:19.121Z,100695.44
2023-03-17T06:47:40.933Z,100699.81
2023-03-17T06:50:04.810Z,100695.84
2023-03-17T06:52:27.637Z,100708.56
2023-03-17T06:54:49.322Z,100699.72
2023-03-17T06:57:11.122Z,100697.13
2023-03-17T06:59:33.371Z,100687.63
2023-03-17T07:01:57.738Z,100693.91
2023-03-17T07:04:19.752Z,100686.50
2023-03-17T07:06:41.702Z,100691.00
2023-03-17T07:09:03.858Z,100684.56
2023-03-17T07:11:26.294Z,100684.88
2023-03-17T07:13:48.005Z,100689.41
2023-03-17T07:16:13.953Z,100694.72
2023-03-17T07:18:35.653Z,100697.78
2023-03-17T07:21:01.770Z,100701.31
2023-03-17T07:23:23.655Z,100706.78
2023-03-17T07:25:47.175Z,100706.44
2023-03-17T07:28:09.482Z,100700.94
2023-03-17T07:30:31.900Z,100696.22
2023-03-17T07:32:53.948Z,100704.75
2023-03-17T07:35:16.176Z,100695.34
2023-03-17T07:37:38.357Z,100689.47
2023-03-17T07:40:00.000Z,100680.69
2023-03-17T07:42:21.826Z,100682.59
2023-03-17T07:44:44.623Z,100678.97
2023-03-17T07:47:06.414Z,100684.75
2023-03-17T07:49:40.777Z,100689.06
2023-03-17T07:52:04.398Z,100682.38
2023-03-17T07:54:28.980Z,100685.41
2023-03-17T07:56:50.767Z,100682.47
2023-03-17T07:59:12.381Z,100679.50
2023-03-17T08:01:35.466Z,100681.41
2023-03-17T08:03:57.268Z,100677.78
2023-03-17T08:06:19.286Z,100682.75
2023-03-17T08:08:41.225Z,100683.34
2023-03-17T08:11:05.465Z,100683.59
2023-03-17T08:13:27.027Z,100684.66
2023-03-17T08:15:49.963Z,100679.78
2023-03-17T08:18:12.734Z,100680.34
2023-03-17T08:20:35.567Z,100686.81
2023-03-17T08:22:57.685Z,100690.16
2023-03-17T08:25:19.359Z,100689.47
2023-03-17T08:27:41.963Z,100693.63
2023-03-17T08:30:04.511Z,100692.25
2023-03-17T08:32:26.378Z,100678.72
2023-03-17T08:34:48.498Z,100683.31
2023-03-17T08:37:11.571Z,100678.03
2023-03-17T08:39:33.831Z,100688.97
2023-03-17T08:41:55.778Z,100687.59
2023-03-17T08:44:17.428Z,100685.91
2023-03-17T08:46:40.291Z,100685.44
2023-03-17T08:49:03.246Z,100690.97
2023-03-17T08:51:28.815Z,100687.28
2023-03-17T08:53:53.931Z,100687.28
2023-03-17T08:56:16.934Z,100670.59
2023-03-17T08:58:43.145Z,100661.03
2023-03-17T09:01:06.844Z,100659.38
2023-03-17T09:03:29.364Z,100658.91
2023-03-17T09:05:51.463Z,100650.72
2023-03-17T09:08:14.334Z,100650.47
2023-03-17T09:10:37.055Z,100656.66
2023-03-17T09:13:03.038Z,100669.75
2023-03-17T09:15:25.772Z,100668.00
2023-03-17T09:17:47.451Z,100674.63
2023-03-17T09:20:11.513Z,100674.50
2023-03-17T09:22:33.528Z,100670.84
2023-03-17T09:24:55.239Z,100673.44
2023-03-17T09:27:16.915Z,100670.94
2023-03-17T09:29:39.202Z,100677.59
2023-03-17T09:32:01.581Z,100674.75
2023-03-17T09:34:25.107Z,100679.75
2023-03-17T09:36:47.855Z,100672.06
2023-03-17T09:39:09.511Z,100676.38
2023-03-17T09:41:41.485Z,100673.47
2023-03-17T09:44:26.183Z,100668.00
2023-03-17T09:47:08.546Z,100668.72
2023-03-17T09:49:52.313Z,100671.50
2023-03-17T09:52:23.135Z,100676.94
2023-03-17T09:54:49.517Z,100670.03
2023-03-17T09:57:31.430Z,100663.03
2023-03-17T10:00:19.344Z,100656.38
2023-03-17T10:02:43.252Z,100652.88
2023-03-17T10:05:27.614Z,100660.88
2023-03-17T10:08:04.391Z,100668.03
2023-03-17T10:10:45.570Z,100664.97
2023-03-17T10:13:27.873Z,100659.13
2023-03-17T10:16:01.032Z,100651.66
2023-03-17T10:18:30.367Z,100663.00
2023-03-17T10:20:59.529Z,100653.41
2023-03-17T10:23:29.854Z,100663.09
2023-03-17T10:25:52.871Z,100671.50
2023-03-17T10:28:26.107Z,100671.09
2023-03-17T10:30:47.773Z,100676.97
2023-03-17T10:33:09.805Z,100678.88
2023-03-17T10:35:36.140Z,100668.19
2023-03-17T10:38:13.512Z,100672.66
2023-03-17T10:40:36.456Z,100660.50
2023-03-17T10:43:07.926Z,100642.09
2023-03-17T10:45:33.480Z,100649.13
2023-03-17T10:47:58.169Z,100653.75
2023-03-17T10:50:28.677Z,100644.13
2023-03-17T10:53:27.860Z,100646.69
2023-03-17T10:55:53.203Z,100632.44
2023-03-17T10:58:18.177Z,100645.66
2023-03-17T11:01:00.077Z,100657.66
2023-03-17T11:03:29.902Z,100660.09
2023-03-17T11:06:10.131Z,100653.47
2023-03-17T11:08:41.630Z,100650.13
2023-03-17T11:11:10.751Z,100654.69
2023-03-17T11:13:32.975Z,100665.53
2023-03-17T11:16:31.978Z,100658.41
2023-03-17T11:19:01.664Z,100657.75
2023-03-17T11:21:55.485Z,100651.56
2023-03-17T11:24:32.152Z,100639.41
2023-03-17T11:27:11.232Z,100633.03
2023-03-17T11:30:00.915Z,100634.19
2023-03-17T11:32:39.335Z,100636.09
2023-03-17T11:35:39.731Z,100629.28
2023-03-17T11:38:04.271Z,100633.75
2023-03-17T11:40:32.446Z,100632.63
2023-03-17T11:43:12.640Z,100628.63
2023-03-17T11:45:49.533Z,100623.47
2023-03-17T11:48:44.851Z,100624.25
2023-03-17T11:51:30.361Z,100640.63
2023-03-17T11:54:18.219Z,100634.72
2023-03-17T11:56:57.629Z,100632.81
2023-03-17T12:00:04.086Z,100627.34
2023-03-17T12:02:36.792Z,100624.22
2023-03-17T12:05:09.825Z,100617.06
2023-03-17T12:07:37.531Z,100607.53
2023-03-17T12:10:25.633Z,100600.41
2023-03-17T12:12:58.898Z,100609.19
2023-03-17T12:15:39.817Z,100602.81
2023-03-17T12:18:21.712Z,100604.41
2023-03-17T12:20:59.062Z,100596.81
2023-03-17T12:23:56.966Z,100605.59
2023-03-17T12:26:24.305Z,100607.56
2023-03-17T12:29:02.750Z,100601.59
2023-03-17T12:31:45.415Z,100600.84
2023-03-17T12:34:20.423Z,100590.06
2023-03-17T12:36:43.974Z,100587.69
2023-03-17T12:39:19.335Z,100590.06
2023-03-17T12:42:05.524Z,100595.22
2023-03-17T12:45:04.627Z,100597.22
2023-03-17T12:47:52.095Z,100598.81
2023-03-17T12:50:34.343Z,100602.03
2023-03-17T12:53:14.477Z,100603.59
2023-03-17T12:55:36.998Z,100596.81
2023-03-17T12:58:24.287Z,100586.44
2023-03-17T13:00:57.584Z,100582.44
2023-03-17T13:03:24.736Z,100587.66
2023-03-17T13:05:59.889Z,100587.66
2023-03-17T13:08:39.286Z,100585.25
2023-03-17T13:11:25.426Z,100578.84
2023-03-17T13:14:05.868Z,100571.28
2023-03-17T13:16:40.975Z,100568.88
2023-03-17T13:19:15.151Z,100570.09
2023-03-17T13:21:38.715Z,100563.31
2023-03-17T13:24:23.893Z,100558.50
2023-03-17T13:26:55.313Z,100559.72
2023-03-17T13:29:31.799Z,100553.34
2023-03-17T13:32:16.834Z,100558.91
2023-03-17T13:35:05.452Z,100560.91
2023-03-17T13:37:34.788Z,100568.47
2023-03-17T13:40:25.378Z,100564.09
2023-03-17T13:42:54.117Z,100571.69
2023-03-17T13:45:35.826Z,100566.06
2023-03-17T13:48:37.881Z,100569.28
2023-03-17T13:51:15.355Z,100556.47
2023-03-17T13:53:42.779Z,100543.72
2023-03-17T13:56:19.097Z,100548.09
2023-03-17T13:59:02.790Z,100544.91
2023-03-17T14:01:26.331Z,100542.13
2023-03-17T14:03:51.343Z,100539.31
2023-03-17T14:06:15.082Z,100538.09
2023-03-17T14:08:44.727Z,100538.50
2023-03-17T14:11:33.092Z,100539.25
2023-03-17T14:14:32.998Z,100533.28
2023-03-17T14:17:10.675Z,100538.06
2023-03-17T14:19:33.373Z,100532.06
2023-03-17T14:22:21.163Z,100530.88
2023-03-17T14:24:42.854Z,100523.31
2023-03-17T14:27:11.915Z,100516.09
2023-03-17T14:29:34.699Z,100518.91
2023-03-17T14:32:06.694Z,100508.53
2023-03-17T14:34:28.368Z,100511.31
2023-03-17T14:36:51.509Z,100508.97
2023-03-17T14:39:24.192Z,100517.34
2023-03-17T14:41:46.098Z,100510.59
2023-03-17T14:44:09.609Z,100526.16
2023-03-17T14:46:37.008Z,100522.16
2023-03-17T14:49:17.722Z,100519.75
2023-03-17T14:51:42.001Z,100516.56
2023-03-17T14:54:28.643Z,100498.22
2023-03-17T14:57:02.041Z,100494.66
2023-03-17T14:59:30.060Z,100496.66
2023-03-17T15:01:58.593Z,100496.25
2023-03-17T15:04:25.716Z,100493.47
2023-03-17T15:06:55.674Z,100498.66
2023-03-17T15:09:19.686Z,100491.09
2023-03-17T15:11:45.122Z,100491.88
2023-03-17T15:14:28.154Z,100489.50
2023-03-17T15:16:55.711Z,100490.28
2023-03-17T15:19:42.673Z,100495.47
2023-03-17T15:22:36.314Z,100489.09
2023-03-17T15:25:20.401Z,100491.88
2023-03-17T15:27:42.752Z,100490.69
2023-03-17T15:30:05.113Z,100490.72
2023-03-17T15:32:28.787Z,100487.91
2023-03-17T15:34:54.551Z,100485.53
2023-03-17T15:37:31.876Z,100480.75
2023-03-17T15:39:55.835Z,100480.75
2023-03-17T15:42:21.704Z,100488.72
2023-03-17T15:44:43.876Z,100487.13
2023-03-17T15:47:05.747Z,100490.31
2023-03-17T15:49:27.624Z,100486.34
2023-03-17T15:51:49.209Z,100478.38
2023-03-17T15:54:15.231Z,100473.97
2023-03-17T15:56:38.469Z,100481.16
2023-03-17T15:59:00.098Z,100483.16
2023-03-17T16:01:21.799Z,100485.16
2023-03-17T16:03:46.987Z,100483.16
2023-03-17T16:06:19.771Z,100479.97
2023-03-17T16:08:41.716Z,100480.75
2023-03-17T16:11:03.406Z,100482.38
2023-03-17T16:13:25.251Z,100483.16
2023-03-17T16:15:55.272Z,100482.75
2023-03-17T16:18:28.616Z,100487.16
2023-03-17T16:20:53.839Z,100485.94
2023-03-17T16:23:21.889Z,100487.13
2023-03-17T16:25:45.106Z,100486.75
2023-03-17T16:28:19.484Z,100491.09
2023-03-17T16:30:42.032Z,100491.50
2023-03-17T16:33:17.206Z,100491.88
2023-03-17T16:35:38.915Z,100485.88
2023-03-17T16:38:00.774Z,100493.47
2023-03-17T16:40:35.624Z,100499.03
2023-03-17T16:42:57.204Z,100499.38
2023-03-17T16:45:29.689Z,100499.75
2023-03-17T16:47:51.318Z,100496.97
2023-03-17T16:50:23.364Z,100494.94
2023-03-17T16:52:45.495Z,100494.91
2023-03-17T16:55:09.680Z,100499.25
2023-03-17T16:57:33.232Z,100504.41
2023-03-17T16:59:54.903Z,100493.66
2023-03-17T17:02:16.804Z,100490.00
2023-03-17T17:04:40.345Z,100490.81
2023-03-17T17:07:02.174Z,100492.75
2023-03-17T17:09:24.203Z,100499.13
2023-03-17T17:11:45.861Z,100501.88
2023-03-17T17:14:07.593Z,100502.25
2023-03-17T17:16:33.551Z,100507.00
2023-03-17T17:18:55.633Z,100510.94
2023-03-17T17:21:17.256Z,100507.72
2023-03-17T17:23:38.932Z,100504.88
2023-03-17T17:26:00.716Z,100513.56
2023-03-17T17:28:24.570Z,100519.84
2023-03-17T17:30:48.078Z,100524.53
2023-03-17T17:33:09.849Z,100524.88
2023-03-17T17:35:33.280Z,100534.72
2023-03-17T17:37:55.578Z,100549.38
2023-03-17T17:40:22.160Z,100550.88
2023-03-17T17:42:46.376Z,100539.66
2023-03-17T17:45:09.977Z,100544.69
2023-03-17T17:47:32.670Z,100554.13
2023-03-17T17:49:54.314Z,100537.38
2023-03-17T17:52:16.183Z,100551.25
2023-03-17T17:54:38.262Z,100545.19
2023-03-17T17:57:00.639Z,100553.19
2023-03-17T17:59:23.536Z,100544.84
2023-03-17T18:01:45.927Z,100547.97
2023-03-17T18:04:07.751Z,100553.53
2023-03-17T18:06:29.465Z,100558.31
2023-03-17T18:08:51.249Z,100555.91
2023-03-17T18:11:13.475Z,100558.28
2023-03-17T18:13:36.191Z,100562.22
2023-03-17T18:15:58.480Z,100555.06
2023-03-17T18:18:20.108Z,100556.22
2023-03-17T18:20:41.871Z,100563.41
2023-03-17T18:23:03.785Z,100566.97
2023-03-17T18:25:27.191Z,100555.88
2023-03-17T18:27:48.834Z,100561.44
2023-03-17T18:30:20.021Z,100550.31
2023-03-17T18:32:43.545Z,100566.19
2023-03-17T18:35:11.848Z,100570.13
2023-03-17T18:37:36.240Z,100570.91
2023-03-17T18:40:13.421Z,100581.16
2023-03-17T18:42:37.546Z,100572.78
2023-03-17T18:44:59.218Z,100569.16
2023-03-17T18:47:21.204Z,100572.31
2023-03-17T18:49:44.878Z,100573.88
2023-03-17T18:52:07.800Z,100567.78
2023-03-17T18:54:29.502Z,100578.84
2023-03-17T18:56:51.637Z,100569.25
2023-03-17T18:59:13.799Z,100576.28
2023-03-17T19:01:35.569Z,100575.38
2023-03-17T19:03:57.237Z,100580.44
2023-03-17T19:06:22.453Z,100579.16
2023-03-17T19:08:44.640Z,100581.09
2023-03-17T19:11:11.930Z,100579.88
2023-03-17T19:13:34.200Z,100572.66
2023-03-17T19:15:55.857Z,100578.94
2023-03-17T19:18:17.526Z,100582.03
2023-03-17T19:20:39.173Z,100576.03
2023-03-17T19:23:08.803Z,100570.88
2023-03-17T19:25:31.178Z,100581.53
2023-03-17T19:27:53.012Z,100582.28
2023-03-17T19:30:15.801Z,100580.28
2023-03-17T19:32:37.642Z,100582.22
2023-03-17T19:34:59.376Z,100592.88
2023-03-17T19:37:21.147Z,100583.34
2023-03-17T19:39:44.929Z,100584.09
2023-03-17T19:42:06.668Z,100584.81
2023-03-17T19:44:28.443Z,100587.13
2023-03-17T19:46:50.548Z,100587.00
2023-03-17T19:49:12.203Z,100592.91
2023-03-17T19:51:33.986Z,100584.13
2023-03-17T19:53:55.900Z,100598.81
2023-03-17T19:56:18.248Z,100592.91
2023-03-17T19:58:40.068Z,100582.91
2023-03-17T20:01:03.490Z,100587.66
2023-03-17T20:03:26.382Z,100584.53
2023-03-17T20:05:48.143Z,100590.47
2023-03-17T20:08:09.806Z,100587.72
2023-03-17T20:10:31.719Z,100593.69
2023-03-17T20:12:53.620Z,100599.25
2023-03-17T20:15:16.444Z,100589.38
2023-03-17T20:17:38.215Z,100600.13
2023-03-17T20:20:00.256Z,100598.13
2023-03-17T20:22:22.162Z,100584.22
2023-03-17T20:24:44.671Z,100590.91
2023-03-17T20:27:07.932Z,100594.44
2023-03-17T20:29:29.626Z,100605.06
2023-03-17T20:31:51.610Z,100603.81
2023-03-17T20:34:13.771Z,100604.53
2023-03-17T20:36:37.156Z,100614.69
2023-03-17T20:38:58.817Z,100620.19
2023-03-17T20:41:21.270Z,100621.34
2023-03-17T20:43:44.787Z,100618.56
2023-03-17T20:46:09.355Z,100614.94
2023-03-17T20:48:32.866Z,100618.88
2023-03-17T20:50:54.836Z,100616.09
2023-03-17T20:53:17.286Z,100629.50
2023-03-17T20:55:42.237Z,100626.34
2023-03-17T20:58:05.248Z,100633.81
2023-03-17T21:00:30.231Z,100636.16
2023-03-17T21:02:52.173Z,100644.84
2023-03-17T21:05:23.149Z,100650.47
2023-03-17T21:07:44.904Z,100636.97
2023-03-17T21:10:08.256Z,100650.03
2023-03-17T21:12:30.216Z,100642.88
2023-03-17T21:14:53.365Z,100647.19
2023-03-17T21:17:18.039Z,100649.59
2023-03-17T21:19:40.603Z,100643.22
2023-03-17T21:22:03.803Z,100650.28
2023-03-17T21:24:33.672Z,100647.00
2023-03-17T21:26:55.362Z,100645.84
2023-03-17T21:29:17.534Z,100646.28
2023-03-17T21:31:39.180Z,100644.31
2023-03-17T21:34:02.384Z,100645.84
2023-03-17T21:36:23.973Z,100650.97
2023-03-17T21:38:45.554Z,100637.09
2023-03-17T21:41:21.458Z,100640.72
2023-03-17T21:43:43.074Z,100634.75
2023-03-17T21:46:05.349Z,100633.59
2023-03-17T21:48:27.253Z,100630.81
2023-03-17T21:50:50.063Z,100633.50
2023-03-17T21:53:16.692Z,100638.25
2023-03-17T21:55:38.614Z,100640.16
2023-03-17T21:58:00.246Z,100647.66
2023-03-17T22:00:23.585Z,100642.06
2023-03-17T22:02:46.648Z,100647.16
2023-03-17T22:05:10.442Z,100645.97
2023-03-17T22:07:32.964Z,100651.50
2023-03-17T22:09:55.096Z,100655.47
2023-03-17T22:12:16.786Z,100649.47
2023-03-17T22:14:38.700Z,100645.47
2023-03-17T22:17:00.649Z,100650.13
2023-03-17T22:19:23.068Z,100647.34
2023-03-17T22:21:44.742Z,100655.31
2023-03-17T22:24:07.309Z,100660.84
2023-03-17T22:26:29.178Z,100653.72
2023-03-17T22:28:51.373Z,100655.66
2023-03-17T22:31:23.170Z,100655.59
2023-03-17T22:33:46.268Z,100654.44
2023-03-17T22:36:08.525Z,100656.41
2023-03-17T22:38:30.241Z,100652.03
2023-03-17T22:41:07.890Z,100653.19
2023-03-17T22:43:29.734Z,100652.78
2023-03-17T22:45:51.585Z,100659.81
2023-03-17T22:48:13.222Z,100664.19
2023-03-17T22:50:34.837Z,100658.22
2023-03-17T22:52:56.500Z,100669.22
2023-03-17T22:55:18.232Z,100677.09
2023-03-17T22:57:40.764Z,100667.53
2023-03-17T23:00:13.732Z,100664.78
2023-03-17T23:02:35.493Z,100668.69
2023-03-17T23:04:57.181Z,100673.00
2023-03-17T23:07:20.226Z,100676.94
2023-03-17T23:09:43.433Z,100676.94
2023-03-17T23:12:05.484Z,100684.81
2023-03-17T23:14:27.215Z,100696.97
2023-03-17T23:16:49.288Z,100692.16
2023-03-17T23:19:10.983Z,100692.44
2023-03-17T23:21:38.642Z,100703.50
2023-03-17T23:24:01.616Z,100705.03
2023-03-17T23:26:24.100Z,100693.13
2023-03-17T23:28:46.369Z,100701.44
2023-03-17T23:31:08.279Z,100698.25
2023-03-17T23:33:30.928Z,100701.34
2023-03-17T23:35:52.781Z,100693.84
2023-03-17T23:38:14.497Z,100689.09
2023-03-17T23:40:36.526Z,100691.44
2023-03-17T23:42:58.571Z,100689.47
2023-03-17T23:45:20.313Z,100701.63
2023-03-17T23:47:43.144Z,100704.75
2023-03-17T23:50:05.605Z,100706.72
2023-03-17T23:52:27.214Z,100702.25
2023-03-17T23:54:49.307Z,100702.63
2023-03-17T23:57:11.680Z,100705.41
2023-03-17T23:59:35.260Z,100700.22
